sensor_id;sensor_type;location;lat;lon;timestamp;temperature;humidity
10530;DHT22;5313;48.834;9.228;2022-12-18T00:02:15;-8.10;99.90
10530;DHT22;5313;48.834;9.228;2022-12-18T00:04:40;-8.70;99.90
10530;DHT22;5313;48.834;9.228;2022-12-18T00:07:06;-8.70;99.90
10530;DHT22;5313;48.834;9.228;2022-12-18T00:09:32;-9.30;99.90
10530;DHT22;5313;48.834;9.228;2022-12-18T00:11:57;-8.50;99.90
10530;DHT22;5313;48.834;9.228;2022-12-18T00:14:23;-8.10;99.90
10530;DHT22;5313;48.834;9.228;2022-12-18T00:16:48;-8.60;99.90
10530;DHT22;5313;48.834;9.228;2022-12-18T00:19:14;-8.60;99.90
10530;DHT22;5313;48.834;9.228;2022-12-18T00:21:41;-8.60;99.90
10530;DHT22;5313;48.834;9.228;2022-12-18T00:24:07;-8.50;99.90
10530;DHT22;5313;48.834;9.228;2022-12-18T00:26:34;-8.50;99.90
10530;DHT22;5313;48.834;9.228;2022-12-18T00:29:06;-8.40;99.90
10530;DHT22;5313;48.834;9.228;2022-12-18T00:31:32;-8.40;99.90
10530;DHT22;5313;48.834;9.228;2022-12-18T00:33:58;-8.70;99.90
10530;DHT22;5313;48.834;9.228;2022-12-18T00:36:29;-8.80;99.90
10530;DHT22;5313;48.834;9.228;2022-12-18T00:38:56;-9.00;99.90
10530;DHT22;5313;48.834;9.228;2022-12-18T00:41:23;-8.90;99.90
10530;DHT22;5313;48.834;9.228;2022-12-18T00:44:09;-9.00;99.90
10530;DHT22;5313;48.834;9.228;2022-12-18T00:46:34;-8.90;99.90
10530;DHT22;5313;48.834;9.228;2022-12-18T00:49:00;-9.00;99.90
10530;DHT22;5313;48.834;9.228;2022-12-18T00:51:26;-8.90;99.90
10530;DHT22;5313;48.834;9.228;2022-12-18T00:53:52;-8.80;99.90
10530;DHT22;5313;48.834;9.228;2022-12-18T00:56:18;-8.70;99.90
10530;DHT22;5313;48.834;9.228;2022-12-18T00:58:43;-9.00;99.90
10530;DHT22;5313;48.834;9.228;2022-12-18T01:01:09;-8.60;99.90
10530;DHT22;5313;48.834;9.228;2022-12-18T01:03:34;-8.60;99.90
10530;DHT22;5313;48.834;9.228;2022-12-18T01:06:09;-8.60;99.90
10530;DHT22;5313;48.834;9.228;2022-12-18T01:08:35;-8.60;99.90
10530;DHT22;5313;48.834;9.228;2022-12-18T01:11:08;-8.50;99.90
10530;DHT22;5313;48.834;9.228;2022-12-18T01:13:34;-8.60;99.90
10530;DHT22;5313;48.834;9.228;2022-12-18T01:15:59;-8.50;99.90
10530;DHT22;5313;48.834;9.228;2022-12-18T01:18:25;-8.40;99.90
10530;DHT22;5313;48.834;9.228;2022-12-18T01:20:50;-8.30;99.90
10530;DHT22;5313;48.834;9.228;2022-12-18T01:23:16;-8.20;99.90
10530;DHT22;5313;48.834;9.228;2022-12-18T01:25:42;-8.30;99.90
10530;DHT22;5313;48.834;9.228;2022-12-18T01:28:07;-8.40;99.90
10530;DHT22;5313;48.834;9.228;2022-12-18T01:30:33;-8.60;99.90
10530;DHT22;5313;48.834;9.228;2022-12-18T01:32:59;-8.60;99.90
10530;DHT22;5313;48.834;9.228;2022-12-18T01:35:24;-8.40;99.90
10530;DHT22;5313;48.834;9.228;2022-12-18T01:37:54;-8.30;99.90
10530;DHT22;5313;48.834;9.228;2022-12-18T01:40:20;-8.20;99.90
10530;DHT22;5313;48.834;9.228;2022-12-18T01:42:53;-8.20;99.90
10530;DHT22;5313;48.834;9.228;2022-12-18T01:52:50;-8.20;99.90
10530;DHT22;5313;48.834;9.228;2022-12-18T01:55:19;-8.20;99.90
10530;DHT22;5313;48.834;9.228;2022-12-18T01:57:46;-8.30;99.90
10530;DHT22;5313;48.834;9.228;2022-12-18T02:00:18;-8.20;99.90
10530;DHT22;5313;48.834;9.228;2022-12-18T02:02:45;-8.20;99.90
10530;DHT22;5313;48.834;9.228;2022-12-18T02:05:14;-8.30;99.90
10530;DHT22;5313;48.834;9.228;2022-12-18T02:07:57;-8.20;99.90
10530;DHT22;5313;48.834;9.228;2022-12-18T02:10:31;-8.20;99.90
10530;DHT22;5313;48.834;9.228;2022-12-18T02:13:19;-8.10;99.90
10530;DHT22;5313;48.834;9.228;2022-12-18T02:16:19;-8.20;99.90
10530;DHT22;5313;48.834;9.228;2022-12-18T02:18:50;-8.20;99.90
10530;DHT22;5313;48.834;9.228;2022-12-18T02:21:36;-8.20;99.90
10530;DHT22;5313;48.834;9.228;2022-12-18T02:24:24;-8.00;99.90
10530;DHT22;5313;48.834;9.228;2022-12-18T02:26:59;-8.10;99.90
10530;DHT22;5313;48.834;9.228;2022-12-18T02:29:44;-8.10;99.90
10530;DHT22;5313;48.834;9.228;2022-12-18T02:32:16;-8.00;99.90
10530;DHT22;5313;48.834;9.228;2022-12-18T02:34:43;-7.90;99.90
10530;DHT22;5313;48.834;9.228;2022-12-18T02:37:13;-7.90;99.90
10530;DHT22;5313;48.834;9.228;2022-12-18T02:39:42;-7.90;99.90
10530;DHT22;5313;48.834;9.228;2022-12-18T02:42:09;-7.90;99.90
10530;DHT22;5313;48.834;9.228;2022-12-18T02:44:42;-7.90;99.90
10530;DHT22;5313;48.834;9.228;2022-12-18T02:47:11;-6.70;99.90
10530;DHT22;5313;48.834;9.228;2022-12-18T02:50:00;-7.80;99.90
10530;DHT22;5313;48.834;9.228;2022-12-18T02:57:58;-7.60;99.90
10530;DHT22;5313;48.834;9.228;2022-12-18T03:03:15;-7.50;99.90
10530;DHT22;5313;48.834;9.228;2022-12-18T03:05:52;-7.40;99.90
10530;DHT22;5313;48.834;9.228;2022-12-18T03:08:23;-7.40;99.90
10530;DHT22;5313;48.834;9.228;2022-12-18T03:10:53;-7.40;99.90
10530;DHT22;5313;48.834;9.228;2022-12-18T03:13:30;-7.40;99.90
10530;DHT22;5313;48.834;9.228;2022-12-18T03:15:58;-7.30;99.90
10530;DHT22;5313;48.834;9.228;2022-12-18T03:18:58;-7.30;99.90
10530;DHT22;5313;48.834;9.228;2022-12-18T03:21:29;-7.30;99.90
10530;DHT22;5313;48.834;9.228;2022-12-18T03:23:59;-7.60;99.90
10530;DHT22;5313;48.834;9.228;2022-12-18T03:26:26;-7.70;99.90
10530;DHT22;5313;48.834;9.228;2022-12-18T03:28:57;-7.80;99.90
10530;DHT22;5313;48.834;9.228;2022-12-18T03:31:28;-7.70;99.90
10530;DHT22;5313;48.834;9.228;2022-12-18T03:33:58;-7.70;99.90
10530;DHT22;5313;48.834;9.228;2022-12-18T03:36:26;-7.70;99.90
10530;DHT22;5313;48.834;9.228;2022-12-18T03:38:52;-7.70;99.90
10530;DHT22;5313;48.834;9.228;2022-12-18T03:41:35;-7.50;99.90
10530;DHT22;5313;48.834;9.228;2022-12-18T03:49:50;-7.20;99.90
10530;DHT22;5313;48.834;9.228;2022-12-18T03:52:38;-7.20;99.90
10530;DHT22;5313;48.834;9.228;2022-12-18T03:55:07;-7.30;99.90
10530;DHT22;5313;48.834;9.228;2022-12-18T03:57:33;-7.40;99.90
10530;DHT22;5313;48.834;9.228;2022-12-18T04:00:14;-7.20;99.90
10530;DHT22;5313;48.834;9.228;2022-12-18T04:02:48;-7.30;99.90
10530;DHT22;5313;48.834;9.228;2022-12-18T04:05:17;-7.50;99.90
10530;DHT22;5313;48.834;9.228;2022-12-18T04:07:45;-7.60;99.90
10530;DHT22;5313;48.834;9.228;2022-12-18T04:10:12;-7.90;99.90
10530;DHT22;5313;48.834;9.228;2022-12-18T04:12:38;-8.10;99.90
10530;DHT22;5313;48.834;9.228;2022-12-18T04:15:05;-8.10;99.90
10530;DHT22;5313;48.834;9.228;2022-12-18T04:17:31;-8.10;99.90
10530;DHT22;5313;48.834;9.228;2022-12-18T04:19:56;-8.20;99.90
10530;DHT22;5313;48.834;9.228;2022-12-18T04:22:22;-8.20;99.90
10530;DHT22;5313;48.834;9.228;2022-12-18T04:24:48;-8.20;99.90
10530;DHT22;5313;48.834;9.228;2022-12-18T04:27:13;-8.30;99.90
10530;DHT22;5313;48.834;9.228;2022-12-18T04:29:39;-8.50;99.90
10530;DHT22;5313;48.834;9.228;2022-12-18T04:32:04;-8.50;99.90
10530;DHT22;5313;48.834;9.228;2022-12-18T04:34:30;-8.60;99.90
10530;DHT22;5313;48.834;9.228;2022-12-18T04:36:56;-8.60;99.90
10530;DHT22;5313;48.834;9.228;2022-12-18T04:39:21;-8.50;99.90
10530;DHT22;5313;48.834;9.228;2022-12-18T04:41:47;-8.50;99.90
10530;DHT22;5313;48.834;9.228;2022-12-18T04:44:12;-8.40;99.90
10530;DHT22;5313;48.834;9.228;2022-12-18T04:46:38;-8.40;99.90
10530;DHT22;5313;48.834;9.228;2022-12-18T04:49:03;-8.30;99.90
10530;DHT22;5313;48.834;9.228;2022-12-18T04:51:29;-8.20;99.90
10530;DHT22;5313;48.834;9.228;2022-12-18T04:53:54;-8.20;99.90
10530;DHT22;5313;48.834;9.228;2022-12-18T04:56:20;-8.20;99.90
10530;DHT22;5313;48.834;9.228;2022-12-18T04:58:45;-8.10;99.90
10530;DHT22;5313;48.834;9.228;2022-12-18T05:01:13;-8.10;99.90
10530;DHT22;5313;48.834;9.228;2022-12-18T05:03:39;-8.10;99.90
10530;DHT22;5313;48.834;9.228;2022-12-18T05:06:05;-8.10;99.90
10530;DHT22;5313;48.834;9.228;2022-12-18T05:08:31;-8.10;99.90
10530;DHT22;5313;48.834;9.228;2022-12-18T05:11:02;-8.20;99.90
10530;DHT22;5313;48.834;9.228;2022-12-18T05:13:28;-8.40;99.90
10530;DHT22;5313;48.834;9.228;2022-12-18T05:15:54;-8.70;99.90
10530;DHT22;5313;48.834;9.228;2022-12-18T05:18:20;-8.90;99.90
10530;DHT22;5313;48.834;9.228;2022-12-18T05:20:46;-8.90;99.90
10530;DHT22;5313;48.834;9.228;2022-12-18T05:23:11;-8.90;99.90
10530;DHT22;5313;48.834;9.228;2022-12-18T05:25:37;-9.00;99.90
10530;DHT22;5313;48.834;9.228;2022-12-18T05:28:02;-9.10;99.90
10530;DHT22;5313;48.834;9.228;2022-12-18T05:30:28;-9.00;99.90
10530;DHT22;5313;48.834;9.228;2022-12-18T05:32:54;-8.90;99.90
10530;DHT22;5313;48.834;9.228;2022-12-18T05:35:19;-8.80;99.90
10530;DHT22;5313;48.834;9.228;2022-12-18T05:37:45;-8.80;99.90
10530;DHT22;5313;48.834;9.228;2022-12-18T05:40:11;-8.90;99.90
10530;DHT22;5313;48.834;9.228;2022-12-18T05:42:37;-8.90;99.90
10530;DHT22;5313;48.834;9.228;2022-12-18T05:45:03;-8.90;99.90
10530;DHT22;5313;48.834;9.228;2022-12-18T05:47:29;-9.00;99.90
10530;DHT22;5313;48.834;9.228;2022-12-18T05:49:54;-8.90;99.90
10530;DHT22;5313;48.834;9.228;2022-12-18T05:52:20;-9.00;99.90
10530;DHT22;5313;48.834;9.228;2022-12-18T05:54:46;-8.90;99.90
10530;DHT22;5313;48.834;9.228;2022-12-18T05:57:11;-8.90;99.90
10530;DHT22;5313;48.834;9.228;2022-12-18T05:59:37;-8.80;99.90
10530;DHT22;5313;48.834;9.228;2022-12-18T06:02:02;-8.90;99.90
10530;DHT22;5313;48.834;9.228;2022-12-18T06:04:31;-9.00;99.90
10530;DHT22;5313;48.834;9.228;2022-12-18T06:06:57;-9.00;99.90
10530;DHT22;5313;48.834;9.228;2022-12-18T06:09:23;-9.00;99.90
10530;DHT22;5313;48.834;9.228;2022-12-18T06:11:48;-9.10;99.90
10530;DHT22;5313;48.834;9.228;2022-12-18T06:14:16;-9.10;99.90
10530;DHT22;5313;48.834;9.228;2022-12-18T06:16:42;-9.10;99.90
10530;DHT22;5313;48.834;9.228;2022-12-18T06:19:12;-9.20;99.90
10530;DHT22;5313;48.834;9.228;2022-12-18T06:21:39;-9.30;99.90
10530;DHT22;5313;48.834;9.228;2022-12-18T06:24:05;-9.30;99.90
10530;DHT22;5313;48.834;9.228;2022-12-18T06:26:30;-9.30;99.90
10530;DHT22;5313;48.834;9.228;2022-12-18T06:28:56;-9.30;99.90
10530;DHT22;5313;48.834;9.228;2022-12-18T06:31:21;-9.30;99.90
10530;DHT22;5313;48.834;9.228;2022-12-18T06:33:47;-9.30;99.90
10530;DHT22;5313;48.834;9.228;2022-12-18T06:36:13;-9.40;99.90
10530;DHT22;5313;48.834;9.228;2022-12-18T06:38:41;-9.40;99.90
10530;DHT22;5313;48.834;9.228;2022-12-18T06:41:12;-9.40;99.90
10530;DHT22;5313;48.834;9.228;2022-12-18T06:43:38;-9.50;99.90
10530;DHT22;5313;48.834;9.228;2022-12-18T06:46:04;-9.40;99.90
10530;DHT22;5313;48.834;9.228;2022-12-18T06:48:31;-9.50;99.90
10530;DHT22;5313;48.834;9.228;2022-12-18T06:50:57;-9.40;99.90
10530;DHT22;5313;48.834;9.228;2022-12-18T06:53:22;-9.40;99.90
10530;DHT22;5313;48.834;9.228;2022-12-18T06:55:48;-9.40;99.90
10530;DHT22;5313;48.834;9.228;2022-12-18T06:58:14;-9.50;99.90
10530;DHT22;5313;48.834;9.228;2022-12-18T07:00:39;-9.50;99.90
10530;DHT22;5313;48.834;9.228;2022-12-18T07:03:05;-9.50;99.90
10530;DHT22;5313;48.834;9.228;2022-12-18T07:05:30;-9.40;99.90
10530;DHT22;5313;48.834;9.228;2022-12-18T07:07:56;-9.50;99.90
10530;DHT22;5313;48.834;9.228;2022-12-18T07:10:21;-9.50;99.90
10530;DHT22;5313;48.834;9.228;2022-12-18T07:12:47;-9.50;99.90
10530;DHT22;5313;48.834;9.228;2022-12-18T07:15:12;-9.50;99.90
10530;DHT22;5313;48.834;9.228;2022-12-18T07:17:38;-9.50;99.90
10530;DHT22;5313;48.834;9.228;2022-12-18T07:20:04;-9.50;99.90
10530;DHT22;5313;48.834;9.228;2022-12-18T07:22:29;-9.30;99.90
10530;DHT22;5313;48.834;9.228;2022-12-18T07:24:55;-9.40;99.90
10530;DHT22;5313;48.834;9.228;2022-12-18T07:27:21;-9.40;99.90
10530;DHT22;5313;48.834;9.228;2022-12-18T07:29:49;-9.40;99.90
10530;DHT22;5313;48.834;9.228;2022-12-18T07:32:15;-9.30;99.90
10530;DHT22;5313;48.834;9.228;2022-12-18T07:34:41;-9.30;99.90
10530;DHT22;5313;48.834;9.228;2022-12-18T07:37:06;-9.30;99.90
10530;DHT22;5313;48.834;9.228;2022-12-18T07:39:32;-9.30;99.90
10530;DHT22;5313;48.834;9.228;2022-12-18T07:41:57;-9.30;99.90
10530;DHT22;5313;48.834;9.228;2022-12-18T07:44:41;-9.20;99.90
10530;DHT22;5313;48.834;9.228;2022-12-18T07:47:07;-9.20;99.90
10530;DHT22;5313;48.834;9.228;2022-12-18T07:49:33;-9.20;99.90
10530;DHT22;5313;48.834;9.228;2022-12-18T07:51:58;-9.20;99.90
10530;DHT22;5313;48.834;9.228;2022-12-18T07:54:24;-9.20;99.90
10530;DHT22;5313;48.834;9.228;2022-12-18T07:56:51;-9.20;99.90
10530;DHT22;5313;48.834;9.228;2022-12-18T07:59:17;-9.10;99.90
10530;DHT22;5313;48.834;9.228;2022-12-18T08:01:43;-9.00;99.90
10530;DHT22;5313;48.834;9.228;2022-12-18T08:04:08;-8.90;99.90
10530;DHT22;5313;48.834;9.228;2022-12-18T08:06:34;-8.90;99.90
10530;DHT22;5313;48.834;9.228;2022-12-18T08:08:59;-8.90;99.90
10530;DHT22;5313;48.834;9.228;2022-12-18T08:11:26;-8.90;99.90
10530;DHT22;5313;48.834;9.228;2022-12-18T08:13:52;-8.80;99.90
10530;DHT22;5313;48.834;9.228;2022-12-18T08:16:19;-8.80;99.90
10530;DHT22;5313;48.834;9.228;2022-12-18T08:18:44;-8.80;99.90
10530;DHT22;5313;48.834;9.228;2022-12-18T08:21:15;-8.80;99.90
10530;DHT22;5313;48.834;9.228;2022-12-18T08:23:41;-8.70;99.90
10530;DHT22;5313;48.834;9.228;2022-12-18T08:26:07;-8.60;99.90
10530;DHT22;5313;48.834;9.228;2022-12-18T08:28:33;-8.60;99.90
10530;DHT22;5313;48.834;9.228;2022-12-18T08:30:59;-8.60;99.90
10530;DHT22;5313;48.834;9.228;2022-12-18T08:33:25;-8.50;99.90
10530;DHT22;5313;48.834;9.228;2022-12-18T08:35:51;-8.50;99.90
10530;DHT22;5313;48.834;9.228;2022-12-18T08:38:17;-8.40;99.90
10530;DHT22;5313;48.834;9.228;2022-12-18T08:40:43;-8.30;99.90
10530;DHT22;5313;48.834;9.228;2022-12-18T08:43:09;-8.20;99.90
10530;DHT22;5313;48.834;9.228;2022-12-18T08:45:54;-8.20;99.90
10530;DHT22;5313;48.834;9.228;2022-12-18T08:48:19;-7.90;99.90
10530;DHT22;5313;48.834;9.228;2022-12-18T08:50:57;-7.60;99.90
10530;DHT22;5313;48.834;9.228;2022-12-18T08:53:23;-7.70;99.90
10530;DHT22;5313;48.834;9.228;2022-12-18T08:55:49;-7.60;99.90
10530;DHT22;5313;48.834;9.228;2022-12-18T08:58:15;-7.50;99.90
10530;DHT22;5313;48.834;9.228;2022-12-18T09:00:40;-7.50;99.90
10530;DHT22;5313;48.834;9.228;2022-12-18T09:03:14;-7.50;99.90
10530;DHT22;5313;48.834;9.228;2022-12-18T09:05:40;-7.50;99.90
10530;DHT22;5313;48.834;9.228;2022-12-18T09:08:06;-7.50;99.90
10530;DHT22;5313;48.834;9.228;2022-12-18T09:10:31;-7.50;99.90
10530;DHT22;5313;48.834;9.228;2022-12-18T09:12:57;-7.30;99.90
10530;DHT22;5313;48.834;9.228;2022-12-18T09:15:23;-7.10;99.90
10530;DHT22;5313;48.834;9.228;2022-12-18T09:17:48;-7.00;99.90
10530;DHT22;5313;48.834;9.228;2022-12-18T09:20:18;-6.60;99.90
10530;DHT22;5313;48.834;9.228;2022-12-18T09:22:44;-6.50;99.90
10530;DHT22;5313;48.834;9.228;2022-12-18T09:25:10;-6.20;99.90
10530;DHT22;5313;48.834;9.228;2022-12-18T09:27:35;-6.10;99.90
10530;DHT22;5313;48.834;9.228;2022-12-18T09:30:02;-6.00;99.90
10530;DHT22;5313;48.834;9.228;2022-12-18T09:32:28;-5.90;99.90
10530;DHT22;5313;48.834;9.228;2022-12-18T09:34:53;-5.70;99.90
10530;DHT22;5313;48.834;9.228;2022-12-18T09:37:19;-5.60;99.90
10530;DHT22;5313;48.834;9.228;2022-12-18T09:39:44;-5.40;99.90
10530;DHT22;5313;48.834;9.228;2022-12-18T09:42:19;-5.20;99.90
10530;DHT22;5313;48.834;9.228;2022-12-18T09:44:49;-5.00;99.90
10530;DHT22;5313;48.834;9.228;2022-12-18T09:47:34;-5.10;99.90
10530;DHT22;5313;48.834;9.228;2022-12-18T09:50:04;-4.80;99.90
10530;DHT22;5313;48.834;9.228;2022-12-18T09:52:34;-5.00;99.90
10530;DHT22;5313;48.834;9.228;2022-12-18T09:55:11;-5.20;99.90
10530;DHT22;5313;48.834;9.228;2022-12-18T09:57:42;-5.20;99.90
10530;DHT22;5313;48.834;9.228;2022-12-18T10:00:21;-5.10;99.90
10530;DHT22;5313;48.834;9.228;2022-12-18T10:02:47;-5.30;99.90
10530;DHT22;5313;48.834;9.228;2022-12-18T10:05:17;-5.30;99.90
10530;DHT22;5313;48.834;9.228;2022-12-18T10:08:02;-5.40;99.90
10530;DHT22;5313;48.834;9.228;2022-12-18T10:21:22;-4.20;99.90
10530;DHT22;5313;48.834;9.228;2022-12-18T10:23:58;-3.90;99.90
10530;DHT22;5313;48.834;9.228;2022-12-18T10:26:25;-3.30;99.90
10530;DHT22;5313;48.834;9.228;2022-12-18T10:28:52;-3.50;99.90
10530;DHT22;5313;48.834;9.228;2022-12-18T10:31:21;-3.00;99.90
10530;DHT22;5313;48.834;9.228;2022-12-18T10:33:47;-3.00;99.90
10530;DHT22;5313;48.834;9.228;2022-12-18T10:36:13;-3.00;99.90
10530;DHT22;5313;48.834;9.228;2022-12-18T10:38:39;-2.90;99.90
10530;DHT22;5313;48.834;9.228;2022-12-18T10:46:35;-2.40;99.90
10530;DHT22;5313;48.834;9.228;2022-12-18T10:49:01;-2.40;99.90
10530;DHT22;5313;48.834;9.228;2022-12-18T10:51:28;-2.40;99.90
10530;DHT22;5313;48.834;9.228;2022-12-18T10:53:57;-2.30;99.90
10530;DHT22;5313;48.834;9.228;2022-12-18T10:56:26;-2.50;99.90
10530;DHT22;5313;48.834;9.228;2022-12-18T10:59:02;-2.20;99.90
10530;DHT22;5313;48.834;9.228;2022-12-18T11:04:24;-2.30;99.90
10530;DHT22;5313;48.834;9.228;2022-12-18T11:07:05;-2.20;99.90
10530;DHT22;5313;48.834;9.228;2022-12-18T11:09:33;-2.00;99.90
10530;DHT22;5313;48.834;9.228;2022-12-18T11:12:04;-1.30;99.90
10530;DHT22;5313;48.834;9.228;2022-12-18T11:14:43;-2.10;99.90
10530;DHT22;5313;48.834;9.228;2022-12-18T11:17:31;-2.10;99.90
10530;DHT22;5313;48.834;9.228;2022-12-18T11:19:59;-1.50;99.90
10530;DHT22;5313;48.834;9.228;2022-12-18T11:22:29;-1.40;99.90
10530;DHT22;5313;48.834;9.228;2022-12-18T11:25:00;-1.40;99.90
10530;DHT22;5313;48.834;9.228;2022-12-18T11:27:26;-1.50;99.90
10530;DHT22;5313;48.834;9.228;2022-12-18T11:32:48;-1.10;99.90
10530;DHT22;5313;48.834;9.228;2022-12-18T11:35:33;-0.70;99.90
10530;DHT22;5313;48.834;9.228;2022-12-18T11:38:13;-0.60;99.90
10530;DHT22;5313;48.834;9.228;2022-12-18T11:40:43;-0.50;99.90
10530;DHT22;5313;48.834;9.228;2022-12-18T11:43:16;-0.40;99.90
10530;DHT22;5313;48.834;9.228;2022-12-18T11:46:10;-0.80;99.90
10530;DHT22;5313;48.834;9.228;2022-12-18T11:48:55;-0.90;99.90
10530;DHT22;5313;48.834;9.228;2022-12-18T11:51:37;-1.20;99.90
10530;DHT22;5313;48.834;9.228;2022-12-18T11:54:15;-0.60;99.90
10530;DHT22;5313;48.834;9.228;2022-12-18T11:57:23;-0.90;99.90
10530;DHT22;5313;48.834;9.228;2022-12-18T12:02:36;-0.80;99.90
10530;DHT22;5313;48.834;9.228;2022-12-18T12:10:56;-0.50;99.90
10530;DHT22;5313;48.834;9.228;2022-12-18T12:17:03;-1.10;99.90
10530;DHT22;5313;48.834;9.228;2022-12-18T12:21:43;-1.20;99.90
10530;DHT22;5313;48.834;9.228;2022-12-18T12:24:19;-1.00;99.90
10530;DHT22;5313;48.834;9.228;2022-12-18T12:33:24;-0.40;99.90
10530;DHT22;5313;48.834;9.228;2022-12-18T12:35:42;-0.20;99.90
10530;DHT22;5313;48.834;9.228;2022-12-18T12:38:31;-0.30;99.90
10530;DHT22;5313;48.834;9.228;2022-12-18T12:41:06;-0.50;99.90
10530;DHT22;5313;48.834;9.228;2022-12-18T12:43:55;-0.50;99.90
10530;DHT22;5313;48.834;9.228;2022-12-18T12:46:23;-0.30;99.90
10530;DHT22;5313;48.834;9.228;2022-12-18T12:49:04;-0.50;99.90
10530;DHT22;5313;48.834;9.228;2022-12-18T12:51:36;-0.40;99.90
10530;DHT22;5313;48.834;9.228;2022-12-18T12:54:19;-0.70;99.90
10530;DHT22;5313;48.834;9.228;2022-12-18T12:57:24;-0.60;99.90
10530;DHT22;5313;48.834;9.228;2022-12-18T13:05:31;-0.40;99.90
10530;DHT22;5313;48.834;9.228;2022-12-18T13:08:03;-0.70;99.90
10530;DHT22;5313;48.834;9.228;2022-12-18T13:23:28;-0.40;99.90
10530;DHT22;5313;48.834;9.228;2022-12-18T13:31:02;-0.70;99.90
10530;DHT22;5313;48.834;9.228;2022-12-18T13:36:01;-0.50;99.90
10530;DHT22;5313;48.834;9.228;2022-12-18T13:38:36;-0.60;99.90
10530;DHT22;5313;48.834;9.228;2022-12-18T13:43:45;-0.70;99.90
10530;DHT22;5313;48.834;9.228;2022-12-18T13:46:23;-0.70;99.90
10530;DHT22;5313;48.834;9.228;2022-12-18T13:52:01;-0.80;99.90
10530;DHT22;5313;48.834;9.228;2022-12-18T13:54:36;-1.00;99.90
10530;DHT22;5313;48.834;9.228;2022-12-18T13:57:04;-1.00;99.90
10530;DHT22;5313;48.834;9.228;2022-12-18T13:59:35;-1.10;99.90
10530;DHT22;5313;48.834;9.228;2022-12-18T14:04:37;-1.00;99.90
10530;DHT22;5313;48.834;9.228;2022-12-18T14:07:26;-0.80;99.90
10530;DHT22;5313;48.834;9.228;2022-12-18T14:09:58;-1.00;99.90
10530;DHT22;5313;48.834;9.228;2022-12-18T14:12:26;-1.10;99.90
10530;DHT22;5313;48.834;9.228;2022-12-18T14:15:27;-1.10;99.90
10530;DHT22;5313;48.834;9.228;2022-12-18T14:17:59;-1.10;99.90
10530;DHT22;5313;48.834;9.228;2022-12-18T14:20:27;-1.10;99.90
10530;DHT22;5313;48.834;9.228;2022-12-18T14:22:56;-1.20;99.90
10530;DHT22;5313;48.834;9.228;2022-12-18T14:25:24;-1.10;99.90
10530;DHT22;5313;48.834;9.228;2022-12-18T14:27:51;-1.10;99.90
10530;DHT22;5313;48.834;9.228;2022-12-18T14:30:24;-1.20;99.90
10530;DHT22;5313;48.834;9.228;2022-12-18T14:33:09;-1.30;99.90
10530;DHT22;5313;48.834;9.228;2022-12-18T14:35:40;-1.40;99.90
10530;DHT22;5313;48.834;9.228;2022-12-18T14:40:59;-1.40;99.90
10530;DHT22;5313;48.834;9.228;2022-12-18T14:43:27;-1.40;99.90
10530;DHT22;5313;48.834;9.228;2022-12-18T14:45:53;-1.50;99.90
10530;DHT22;5313;48.834;9.228;2022-12-18T14:53:32;-1.50;99.90
10530;DHT22;5313;48.834;9.228;2022-12-18T14:55:58;-1.60;99.90
10530;DHT22;5313;48.834;9.228;2022-12-18T14:58:24;-1.60;99.90
10530;DHT22;5313;48.834;9.228;2022-12-18T15:00:50;-1.70;99.90
10530;DHT22;5313;48.834;9.228;2022-12-18T15:03:18;-1.70;99.90
10530;DHT22;5313;48.834;9.228;2022-12-18T15:05:45;-1.80;99.90
10530;DHT22;5313;48.834;9.228;2022-12-18T15:08:34;-1.80;99.90
10530;DHT22;5313;48.834;9.228;2022-12-18T15:11:00;-1.90;99.90
10530;DHT22;5313;48.834;9.228;2022-12-18T15:13:25;-1.90;99.90
10530;DHT22;5313;48.834;9.228;2022-12-18T15:15:52;-1.80;99.90
10530;DHT22;5313;48.834;9.228;2022-12-18T15:18:22;-1.90;99.90
10530;DHT22;5313;48.834;9.228;2022-12-18T15:20:53;-1.90;99.90
10530;DHT22;5313;48.834;9.228;2022-12-18T15:23:49;-2.00;99.90
10530;DHT22;5313;48.834;9.228;2022-12-18T15:26:18;-2.00;99.90
10530;DHT22;5313;48.834;9.228;2022-12-18T15:28:46;-2.10;99.90
10530;DHT22;5313;48.834;9.228;2022-12-18T15:33:40;-2.10;99.90
10530;DHT22;5313;48.834;9.228;2022-12-18T15:36:12;-2.20;99.90
10530;DHT22;5313;48.834;9.228;2022-12-18T15:38:38;-2.30;99.90
10530;DHT22;5313;48.834;9.228;2022-12-18T15:41:04;-2.20;99.90
10530;DHT22;5313;48.834;9.228;2022-12-18T15:43:30;-2.20;99.90
10530;DHT22;5313;48.834;9.228;2022-12-18T15:46:04;-2.30;99.90
10530;DHT22;5313;48.834;9.228;2022-12-18T15:48:30;-2.30;99.90
10530;DHT22;5313;48.834;9.228;2022-12-18T15:50:57;-2.20;99.90
10530;DHT22;5313;48.834;9.228;2022-12-18T15:53:25;-2.30;99.90
10530;DHT22;5313;48.834;9.228;2022-12-18T15:55:51;-2.30;99.90
10530;DHT22;5313;48.834;9.228;2022-12-18T15:58:35;-2.40;99.90
10530;DHT22;5313;48.834;9.228;2022-12-18T16:01:01;-2.40;99.90
10530;DHT22;5313;48.834;9.228;2022-12-18T16:03:26;-2.40;99.90
10530;DHT22;5313;48.834;9.228;2022-12-18T16:05:52;-2.50;99.90
10530;DHT22;5313;48.834;9.228;2022-12-18T16:08:18;-2.50;99.90
10530;DHT22;5313;48.834;9.228;2022-12-18T16:10:43;-2.60;99.90
10530;DHT22;5313;48.834;9.228;2022-12-18T16:13:10;-2.70;99.90
10530;DHT22;5313;48.834;9.228;2022-12-18T16:15:36;-2.70;99.90
10530;DHT22;5313;48.834;9.228;2022-12-18T16:18:02;-2.70;99.90
10530;DHT22;5313;48.834;9.228;2022-12-18T16:20:28;-2.70;99.90
10530;DHT22;5313;48.834;9.228;2022-12-18T16:22:53;-2.80;99.90
10530;DHT22;5313;48.834;9.228;2022-12-18T16:25:21;-2.90;99.90
10530;DHT22;5313;48.834;9.228;2022-12-18T16:27:47;-2.90;99.90
10530;DHT22;5313;48.834;9.228;2022-12-18T16:30:18;-2.80;99.90
10530;DHT22;5313;48.834;9.228;2022-12-18T16:32:44;-2.70;99.90
10530;DHT22;5313;48.834;9.228;2022-12-18T16:35:11;-2.80;99.90
10530;DHT22;5313;48.834;9.228;2022-12-18T16:37:38;-2.80;99.90
10530;DHT22;5313;48.834;9.228;2022-12-18T16:40:05;-2.70;99.90
10530;DHT22;5313;48.834;9.228;2022-12-18T16:42:31;-2.70;99.90
10530;DHT22;5313;48.834;9.228;2022-12-18T16:44:57;-2.70;99.90
10530;DHT22;5313;48.834;9.228;2022-12-18T16:47:22;-2.70;99.90
10530;DHT22;5313;48.834;9.228;2022-12-18T16:49:48;-2.70;99.90
10530;DHT22;5313;48.834;9.228;2022-12-18T16:52:17;-2.70;99.90
10530;DHT22;5313;48.834;9.228;2022-12-18T16:54:42;-2.70;99.90
10530;DHT22;5313;48.834;9.228;2022-12-18T16:57:12;-2.70;99.90
10530;DHT22;5313;48.834;9.228;2022-12-18T16:59:37;-2.80;99.90
10530;DHT22;5313;48.834;9.228;2022-12-18T17:02:03;-2.90;99.90
10530;DHT22;5313;48.834;9.228;2022-12-18T17:04:29;-2.80;99.90
10530;DHT22;5313;48.834;9.228;2022-12-18T17:06:54;-2.80;99.90
10530;DHT22;5313;48.834;9.228;2022-12-18T17:09:21;-2.80;99.90
10530;DHT22;5313;48.834;9.228;2022-12-18T17:11:50;-2.80;99.90
10530;DHT22;5313;48.834;9.228;2022-12-18T17:14:17;-2.90;99.90
10530;DHT22;5313;48.834;9.228;2022-12-18T17:16:43;-2.80;99.90
10530;DHT22;5313;48.834;9.228;2022-12-18T17:19:10;-2.80;99.90
10530;DHT22;5313;48.834;9.228;2022-12-18T17:21:35;-2.90;99.90
10530;DHT22;5313;48.834;9.228;2022-12-18T17:24:01;-2.70;99.90
10530;DHT22;5313;48.834;9.228;2022-12-18T17:26:28;-2.80;99.90
10530;DHT22;5313;48.834;9.228;2022-12-18T17:28:56;-2.70;99.90
10530;DHT22;5313;48.834;9.228;2022-12-18T17:31:23;-2.70;99.90
10530;DHT22;5313;48.834;9.228;2022-12-18T17:33:49;-2.70;99.90
10530;DHT22;5313;48.834;9.228;2022-12-18T17:36:15;-2.70;99.90
10530;DHT22;5313;48.834;9.228;2022-12-18T17:38:41;-2.60;99.90
10530;DHT22;5313;48.834;9.228;2022-12-18T17:41:09;-2.60;99.90
10530;DHT22;5313;48.834;9.228;2022-12-18T17:43:35;-2.60;99.90
10530;DHT22;5313;48.834;9.228;2022-12-18T17:46:05;-2.70;99.90
10530;DHT22;5313;48.834;9.228;2022-12-18T17:48:31;-2.70;99.90